Time;durP1;ratioP1;P1;durP2;ratioP2;P2;SDS_P1;SDS_P2;PMS_P1;PMS_P2;Temp;Humidity;BMP_temperature;BMP_pressure;BME280_temperature;BME280_humidity;BME280_pressure;Samples;Min_cycle;Max_cycle;Signal;HPM_P1;HPM_P2
2023/09/04 00:02:13;;;;;;;6.33;5.80;;;22.60;91.40;;;;;;4931436;28;20460;-72
2023/09/04 00:04:39;;;;;;;5.70;5.20;;;22.60;91.40;;;;;;4947173;28;20426;-72
2023/09/04 00:07:09;;;;;;;5.60;5.10;;;22.60;91.40;;;;;;4947284;28;20457;-72
2023/09/04 00:09:40;;;;;;;5.80;5.30;;;22.60;91.40;;;;;;4964311;28;20438;-72
2023/09/04 00:12:08;;;;;;;5.50;4.90;;;22.60;91.40;;;;;;4963366;28;20939;-72
2023/09/04 00:14:34;;;;;;;5.90;5.40;;;22.60;91.50;;;;;;4979198;28;20410;-72
2023/09/04 00:17:06;;;;;;;6.47;5.40;;;22.50;91.40;;;;;;4962530;28;20473;-72
2023/09/04 00:19:34;;;;;;;7.60;5.20;;;22.50;91.40;;;;;;4954856;28;20463;-72
2023/09/04 00:22:02;;;;;;;5.80;5.30;;;22.50;91.30;;;;;;4952677;28;21037;-72
2023/09/04 00:24:28;;;;;;;5.07;4.67;;;22.50;91.30;;;;;;4964727;28;20422;-72
2023/09/04 00:26:57;;;;;;;10.53;5.20;;;22.50;91.30;;;;;;4963992;28;20477;-73
2023/09/04 00:29:25;;;;;;;6.17;5.53;;;22.50;91.30;;;;;;4947305;28;20485;-72
2023/09/04 00:31:56;;;;;;;7.17;5.47;;;22.50;91.30;;;;;;4963500;28;20434;-72
2023/09/04 00:34:24;;;;;;;4.93;4.43;;;22.40;91.30;;;;;;4979470;28;20405;-72
2023/09/04 00:36:50;;;;;;;5.03;4.63;;;22.40;91.20;;;;;;4948049;28;20468;-72
2023/09/04 00:39:20;;;;;;;5.53;5.03;;;22.40;91.20;;;;;;4958080;28;20427;-72
2023/09/04 00:41:46;;;;;;;5.00;4.50;;;22.40;91.20;;;;;;4960066;28;20792;-72
2023/09/04 00:44:17;;;;;;;8.20;5.60;;;22.40;91.20;;;;;;4959739;28;20542;-72
2023/09/04 00:46:46;;;;;;;5.50;5.10;;;22.40;91.20;;;;;;4968709;28;20557;-72
2023/09/04 00:49:14;;;;;;;6.10;5.50;;;22.40;91.20;;;;;;4978644;28;20867;-72
2023/09/04 00:51:45;;;;;;;5.10;4.70;;;22.30;91.00;;;;;;4969545;28;20429;-72
2023/09/04 00:54:14;;;;;;;6.63;5.20;;;22.30;91.10;;;;;;4966477;28;20859;-72
2023/09/04 00:56:44;;;;;;;5.23;4.83;;;22.30;91.10;;;;;;4978593;28;20442;-72
2023/09/04 00:59:10;;;;;;;5.20;4.80;;;22.30;91.10;;;;;;4963852;28;20934;-72
2023/09/04 01:01:36;;;;;;;5.23;4.73;;;22.30;91.10;;;;;;4963074;28;20497;-72
2023/09/04 01:04:02;;;;;;;6.03;5.43;;;22.30;91.00;;;;;;4962334;28;20470;-72
2023/09/04 01:06:28;;;;;;;7.07;5.10;;;22.30;91.00;;;;;;4961399;28;20418;-72
2023/09/04 01:08:55;;;;;;;5.70;5.20;;;22.20;90.90;;;;;;4964163;28;20868;-72
2023/09/04 01:11:42;;;;;;;4.60;4.20;;;22.20;90.90;;;;;;4963565;28;20199;-72
2023/09/04 01:14:16;;;;;;;5.10;4.70;;;22.20;90.90;;;;;;4978484;28;20493;-73
2023/09/04 01:16:47;;;;;;;5.23;4.73;;;22.20;90.90;;;;;;4945811;28;20466;-72
2023/09/04 01:19:18;;;;;;;6.23;5.00;;;22.20;90.80;;;;;;4962138;28;20779;-72
2023/09/04 01:21:44;;;;;;;5.07;4.67;;;22.20;90.90;;;;;;4962357;28;21022;-72
2023/09/04 01:24:10;;;;;;;5.40;4.57;;;22.10;90.80;;;;;;4962143;28;20406;-72
2023/09/04 01:26:40;;;;;;;4.60;4.30;;;22.20;90.90;;;;;;4945930;28;20852;-72
2023/09/04 01:29:26;;;;;;;4.93;4.53;;;22.10;90.80;;;;;;4963267;28;20423;-72
2023/09/04 01:32:27;;;;;;;5.67;5.13;;;22.10;90.80;;;;;;4961216;28;20423;-72
2023/09/04 01:34:54;;;;;;;5.43;4.93;;;22.10;90.70;;;;;;4960136;28;20429;-72
2023/09/04 01:37:21;;;;;;;5.43;4.93;;;22.10;90.80;;;;;;4959116;28;20466;-72
2023/09/04 01:39:52;;;;;;;4.50;4.10;;;22.00;90.80;;;;;;4943272;29;20442;-72
2023/09/04 01:42:21;;;;;;;4.40;4.10;;;22.00;90.70;;;;;;4943250;29;20438;-72
2023/09/04 01:44:50;;;;;;;5.37;4.87;;;22.00;90.70;;;;;;4959422;28;20415;-72
2023/09/04 01:47:20;;;;;;;5.03;4.63;;;22.00;90.70;;;;;;4956155;28;20458;-72
2023/09/04 01:49:49;;;;;;;5.83;4.53;;;22.00;90.70;;;;;;4962278;28;20422;-72
2023/09/04 01:52:15;;;;;;;4.23;3.90;;;22.00;90.70;;;;;;4961861;28;20261;-72
2023/09/04 01:54:41;;;;;;;5.13;4.73;;;22.00;90.70;;;;;;4962209;28;20433;-72
2023/09/04 01:57:09;;;;;;;8.40;5.13;;;22.00;90.70;;;;;;4977591;28;20477;-73
2023/09/04 01:59:35;;;;;;;5.17;4.77;;;21.90;90.60;;;;;;4961180;28;20869;-72
2023/09/04 02:02:01;;;;;;;5.27;4.77;;;21.90;90.60;;;;;;4961545;28;20502;-72
2023/09/04 02:04:31;;;;;;;4.60;4.30;;;22.00;90.70;;;;;;4961254;28;20429;-72
2023/09/04 02:07:00;;;;;;;6.10;4.60;;;21.90;90.60;;;;;;4978030;28;20458;-72
2023/09/04 02:09:33;;;;;;;4.40;4.10;;;21.90;90.60;;;;;;4978110;28;20545;-72
2023/09/04 02:12:03;;;;;;;5.00;4.50;;;21.90;90.60;;;;;;4962240;28;20402;-72
2023/09/04 02:14:32;;;;;;;4.83;4.43;;;21.90;90.60;;;;;;4977481;28;20495;-72
2023/09/04 02:16:58;;;;;;;4.93;4.40;;;21.90;90.60;;;;;;4943987;28;20473;-72
2023/09/04 02:19:24;;;;;;;7.03;4.70;;;21.90;90.60;;;;;;4947156;28;20501;-72
2023/09/04 02:21:54;;;;;;;4.77;4.43;;;21.80;90.50;;;;;;4969952;28;20446;-72
2023/09/04 02:24:20;;;;;;;5.20;4.80;;;21.80;90.50;;;;;;4934554;29;20501;-72
2023/09/04 02:26:48;;;;;;;4.97;4.40;;;21.80;90.50;;;;;;4967664;28;20470;-72
2023/09/04 02:29:16;;;;;;;5.37;4.97;;;21.80;90.50;;;;;;4962472;28;20163;-72
2023/09/04 02:31:45;;;;;;;4.33;4.03;;;21.80;90.50;;;;;;4962656;28;21302;-72
2023/09/04 02:34:15;;;;;;;8.03;5.10;;;21.80;90.40;;;;;;4946172;29;20683;-72
2023/09/04 02:36:41;;;;;;;4.73;4.33;;;21.70;90.40;;;;;;4946261;29;20462;-72
2023/09/04 02:39:12;;;;;;;4.97;4.57;;;21.80;90.40;;;;;;4946243;28;20439;-72
2023/09/04 02:41:47;;;;;;;4.97;4.57;;;21.70;90.40;;;;;;4962031;28;20450;-72
2023/09/04 02:44:14;;;;;;;6.00;5.47;;;21.70;90.40;;;;;;4930691;29;20454;-72
2023/09/04 02:46:42;;;;;;;5.47;5.07;;;21.70;90.40;;;;;;4946723;29;20447;-72
2023/09/04 02:49:12;;;;;;;4.97;4.57;;;21.70;90.40;;;;;;4945966;28;20799;-72
2023/09/04 02:51:38;;;;;;;5.23;4.73;;;21.70;90.40;;;;;;4968193;28;20442;-72
2023/09/04 02:54:09;;;;;;;5.37;4.87;;;21.60;90.30;;;;;;4948843;28;20437;-72
2023/09/04 02:56:35;;;;;;;5.80;4.30;;;21.70;90.40;;;;;;4965460;28;21308;-72
2023/09/04 02:59:06;;;;;;;5.37;4.97;;;21.60;90.30;;;;;;4956484;28;20465;-72
2023/09/04 03:01:34;;;;;;;4.80;4.40;;;21.60;90.30;;;;;;4961914;28;20436;-72
2023/09/04 03:04:00;;;;;;;5.43;4.17;;;21.60;90.30;;;;;;4961477;28;20511;-72
2023/09/04 03:06:26;;;;;;;8.77;4.33;;;21.60;90.30;;;;;;4961039;28;20438;-73
2023/09/04 03:08:54;;;;;;;4.30;3.77;;;21.60;90.30;;;;;;4964297;28;21105;-72
2023/09/04 03:11:23;;;;;;;4.87;4.43;;;21.60;90.30;;;;;;4965216;28;20450;-72
2023/09/04 03:13:54;;;;;;;5.43;4.93;;;21.60;90.30;;;;;;4948398;28;20442;-72
2023/09/04 03:16:22;;;;;;;4.40;4.10;;;21.60;90.30;;;;;;4980837;28;20423;-72
2023/09/04 03:18:48;;;;;;;5.10;4.60;;;21.50;90.30;;;;;;4964484;28;20508;-72
2023/09/04 03:21:17;;;;;;;5.30;4.80;;;21.50;90.20;;;;;;4964940;28;20552;-72
2023/09/04 03:23:43;;;;;;;4.50;4.20;;;21.50;90.20;;;;;;4948336;28;20533;-72
2023/09/04 03:26:10;;;;;;;5.50;5.00;;;21.50;90.20;;;;;;4945158;28;20462;-72
2023/09/04 03:28:38;;;;;;;4.63;3.90;;;21.50;90.20;;;;;;4946506;28;20466;-72
2023/09/04 03:31:13;;;;;;;5.47;4.70;;;21.50;90.20;;;;;;4961165;28;20417;-72
2023/09/04 03:33:42;;;;;;;4.90;4.47;;;21.50;90.20;;;;;;4944573;29;20886;-72
2023/09/04 03:36:11;;;;;;;5.00;4.60;;;21.40;90.10;;;;;;4928802;29;20872;-72
2023/09/04 03:38:42;;;;;;;5.07;4.57;;;21.40;90.10;;;;;;4959703;28;20486;-72
2023/09/04 03:41:08;;;;;;;7.30;4.80;;;21.40;90.20;;;;;;4944139;28;20437;-72
2023/09/04 03:43:35;;;;;;;4.70;4.30;;;21.40;90.10;;;;;;4944717;28;20434;-72
2023/09/04 03:46:05;;;;;;;5.10;4.70;;;21.40;90.10;;;;;;4945342;29;20473;-72
2023/09/04 03:48:31;;;;;;;4.50;4.20;;;21.40;90.10;;;;;;4945327;28;20813;-72
2023/09/04 03:51:01;;;;;;;4.60;4.20;;;21.40;90.10;;;;;;4960981;28;20422;-72
2023/09/04 03:53:27;;;;;;;4.60;4.23;;;21.40;90.20;;;;;;4954304;28;20182;-72
2023/09/04 03:56:04;;;;;;;5.03;4.57;;;21.30;90.10;;;;;;4968075;28;21224;-72
2023/09/04 03:58:32;;;;;;;4.57;4.20;;;21.30;90.10;;;;;;4979224;28;20567;-72
2023/09/04 04:01:01;;;;;;;5.10;4.70;;;21.30;90.10;;;;;;4952128;28;20419;-72
2023/09/04 04:03:31;;;;;;;4.90;4.60;;;21.30;90.20;;;;;;4945838;28;20433;-72
2023/09/04 04:06:07;;;;;;;5.20;4.80;;;21.30;90.20;;;;;;4944069;29;21214;-72
2023/09/04 04:08:38;;;;;;;4.80;4.40;;;21.30;90.20;;;;;;4945871;28;20466;-72
2023/09/04 04:11:04;;;;;;;4.40;4.10;;;21.30;90.20;;;;;;4944216;29;20500;-72
2023/09/04 04:13:30;;;;;;;5.00;4.60;;;21.20;90.10;;;;;;4960266;28;20438;-72
2023/09/04 04:16:00;;;;;;;4.57;4.27;;;21.20;90.10;;;;;;4960238;28;20407;-72
2023/09/04 04:18:32;;;;;;;5.10;4.60;;;21.20;90.10;;;;;;4944231;28;20469;-72
2023/09/04 04:21:04;;;;;;;6.00;4.13;;;21.20;90.10;;;;;;4961183;28;20436;-72
2023/09/04 04:23:34;;;;;;;4.70;4.30;;;21.20;90.10;;;;;;4963342;28;20414;-71
2023/09/04 04:26:01;;;;;;;4.77;4.33;;;21.20;90.10;;;;;;4947344;28;20979;-71
2023/09/04 04:28:27;;;;;;;5.23;4.83;;;21.10;90.10;;;;;;4944915;28;20442;-72
2023/09/04 04:31:00;;;;;;;4.60;4.30;;;21.20;90.20;;;;;;4960016;28;20454;-71
2023/09/04 04:33:32;;;;;;;4.87;4.37;;;21.20;90.20;;;;;;4943222;29;20591;-72
2023/09/04 04:36:03;;;;;;;5.00;4.60;;;21.10;90.10;;;;;;4943539;28;20910;-71
2023/09/04 04:38:29;;;;;;;4.60;4.30;;;21.10;90.10;;;;;;4943201;29;21024;-72
2023/09/04 04:40:56;;;;;;;4.60;4.20;;;21.10;90.00;;;;;;4951094;28;20553;-70
2023/09/04 04:43:24;;;;;;;5.37;4.37;;;21.10;90.10;;;;;;4945635;28;20464;-71
2023/09/04 04:45:55;;;;;;;6.30;5.10;;;21.10;90.10;;;;;;4977564;28;20466;-71
2023/09/04 04:48:26;;;;;;;5.50;5.00;;;21.10;90.10;;;;;;4959995;28;20573;-71
2023/09/04 04:50:51;;;;;;;5.40;4.90;;;21.10;90.10;;;;;;4961642;28;20412;-71
2023/09/04 04:53:20;;;;;;;5.20;4.80;;;21.00;90.00;;;;;;4963021;28;21432;-71
2023/09/04 04:55:46;;;;;;;4.83;4.43;;;21.00;90.00;;;;;;4961597;28;20799;-71
2023/09/04 04:58:15;;;;;;;4.93;4.40;;;21.00;90.10;;;;;;4944155;28;20493;-70
2023/09/04 05:00:41;;;;;;;5.30;4.80;;;21.00;90.10;;;;;;4942747;29;21021;-71
2023/09/04 05:03:09;;;;;;;7.57;4.60;;;21.00;90.10;;;;;;4943167;29;20434;-71
2023/09/04 05:05:35;;;;;;;5.17;4.70;;;21.00;90.10;;;;;;4943882;28;20940;-71
2023/09/04 05:08:07;;;;;;;5.90;4.23;;;21.00;90.10;;;;;;4958787;28;20464;-71
2023/09/04 05:10:34;;;;;;;4.30;3.90;;;21.00;90.10;;;;;;4945391;28;20476;-72
2023/09/04 05:13:00;;;;;;;4.60;4.23;;;21.00;90.10;;;;;;4958927;28;20501;-73
2023/09/04 05:15:26;;;;;;;5.10;4.60;;;20.90;90.00;;;;;;4958934;28;20405;-72
2023/09/04 05:17:52;;;;;;;5.50;4.20;;;20.90;90.10;;;;;;4958696;28;20477;-72
2023/09/04 05:20:18;;;;;;;6.00;5.30;;;20.90;90.00;;;;;;4978191;28;20409;-75
2023/09/04 05:22:45;;;;;;;4.97;4.47;;;20.90;90.10;;;;;;4943126;28;20875;-72
2023/09/04 05:25:13;;;;;;;5.90;4.20;;;20.90;90.10;;;;;;5020781;23;20502;-71
2023/09/04 05:27:42;;;;;;;4.90;4.50;;;20.90;90.10;;;;;;4965187;28;20454;-72
2023/09/04 05:30:08;;;;;;;4.43;4.03;;;20.90;90.10;;;;;;4977780;28;20962;-72
2023/09/04 05:32:39;;;;;;;4.93;4.53;;;20.80;90.10;;;;;;4982747;28;21004;-72
2023/09/04 05:35:06;;;;;;;5.20;4.70;;;20.80;90.10;;;;;;4966238;28;20453;-71
2023/09/04 05:37:33;;;;;;;5.33;4.83;;;20.80;90.00;;;;;;4981716;28;20541;-71
2023/09/04 05:40:04;;;;;;;4.40;4.10;;;20.80;90.00;;;;;;4982808;28;20780;-72
2023/09/04 05:42:35;;;;;;;6.00;5.23;;;20.80;90.10;;;;;;4982363;28;20564;-71
2023/09/04 05:45:04;;;;;;;5.10;4.60;;;20.80;90.10;;;;;;4982514;28;20560;-70
2023/09/04 05:47:30;;;;;;;4.60;4.20;;;20.70;90.00;;;;;;4981736;28;20459;-71
2023/09/04 05:49:56;;;;;;;5.03;4.47;;;20.70;90.00;;;;;;4982485;28;20861;-72
2023/09/04 05:52:24;;;;;;;6.07;3.83;;;20.70;90.00;;;;;;4984055;28;20941;-72
2023/09/04 05:54:53;;;;;;;4.80;4.40;;;20.70;90.10;;;;;;4985350;28;20444;-72
2023/09/04 05:57:19;;;;;;;4.60;4.20;;;20.70;90.00;;;;;;4986863;28;20472;-72
2023/09/04 05:59:51;;;;;;;4.87;4.47;;;20.60;90.00;;;;;;4985037;28;20410;-71
2023/09/04 06:02:17;;;;;;;4.40;4.00;;;20.60;90.00;;;;;;4986837;28;20432;-70
2023/09/04 06:04:44;;;;;;;4.47;4.07;;;20.60;90.00;;;;;;4985226;28;20609;-72
2023/09/04 06:07:14;;;;;;;4.37;4.07;;;20.60;90.10;;;;;;4968485;28;20458;-72
2023/09/04 06:09:40;;;;;;;4.70;4.33;;;20.60;90.10;;;;;;4969021;28;20456;-71
2023/09/04 06:12:09;;;;;;;4.23;3.93;;;20.60;90.20;;;;;;4984891;28;20427;-72
2023/09/04 06:14:38;;;;;;;5.30;3.90;;;20.60;90.20;;;;;;4968906;28;20430;-72
2023/09/04 06:17:06;;;;;;;4.60;3.97;;;20.60;90.30;;;;;;4984914;28;20475;-71
2023/09/04 06:19:32;;;;;;;4.63;4.20;;;20.60;90.30;;;;;;4985120;28;20468;-71
2023/09/04 06:21:58;;;;;;;6.90;4.27;;;20.60;90.40;;;;;;4984975;28;20461;-71
2023/09/04 06:24:25;;;;;;;4.37;3.97;;;20.60;90.40;;;;;;4984738;28;20446;-71
2023/09/04 06:26:54;;;;;;;4.17;3.77;;;20.60;90.50;;;;;;4980485;28;20891;-72
2023/09/04 06:29:25;;;;;;;4.70;4.30;;;20.60;90.50;;;;;;4982834;28;20416;-72
2023/09/04 06:31:53;;;;;;;4.30;3.53;;;20.60;90.60;;;;;;4984664;28;20825;-72
2023/09/04 06:34:19;;;;;;;4.70;4.30;;;20.50;90.60;;;;;;4985265;28;20426;-71
2023/09/04 06:36:45;;;;;;;4.10;3.80;;;20.60;90.70;;;;;;4985197;28;20536;-71
2023/09/04 06:39:14;;;;;;;5.63;4.10;;;20.60;90.70;;;;;;4986097;28;20198;-72
2023/09/04 06:41:41;;;;;;;6.47;4.03;;;20.50;90.70;;;;;;4983966;28;20408;-72
2023/09/04 06:44:09;;;;;;;4.60;4.30;;;20.50;90.80;;;;;;4955766;28;20425;-71
2023/09/04 06:46:35;;;;;;;4.17;3.87;;;20.50;90.90;;;;;;4948746;28;20441;-71
2023/09/04 06:49:01;;;;;;;4.43;4.03;;;20.50;91.00;;;;;;4964563;28;20518;-72
2023/09/04 06:51:29;;;;;;;4.17;3.80;;;20.50;91.00;;;;;;4966257;28;20912;-71
2023/09/04 06:53:55;;;;;;;5.53;3.90;;;20.50;91.00;;;;;;4964414;28;20416;-71
2023/09/04 06:56:24;;;;;;;4.47;4.17;;;20.50;91.10;;;;;;4964200;28;20430;-72
2023/09/04 06:58:52;;;;;;;4.63;4.27;;;20.50;91.10;;;;;;4965759;28;20920;-71
2023/09/04 07:01:21;;;;;;;4.17;3.87;;;20.50;91.10;;;;;;4948472;28;20858;-71
2023/09/04 07:03:49;;;;;;;6.20;4.03;;;20.50;91.20;;;;;;4950763;28;20430;-71
2023/09/04 07:06:17;;;;;;;4.20;3.83;;;20.50;91.20;;;;;;5003563;28;21002;-72
2023/09/04 07:08:46;;;;;;;4.67;4.17;;;20.50;91.30;;;;;;5003425;28;20431;-72
2023/09/04 07:11:12;;;;;;;4.33;3.90;;;20.50;91.30;;;;;;4987189;28;20555;-72
2023/09/04 07:13:38;;;;;;;4.20;3.90;;;20.50;91.30;;;;;;5019603;23;20509;-70
2023/09/04 07:16:04;;;;;;;4.30;3.70;;;20.50;91.40;;;;;;4991887;28;21254;-70
2023/09/04 07:18:33;;;;;;;4.27;3.97;;;20.50;91.40;;;;;;5003808;28;20477;-70
2023/09/04 07:20:59;;;;;;;5.00;4.60;;;20.50;91.40;;;;;;5004074;28;20463;-70
2023/09/04 07:23:27;;;;;;;4.23;3.93;;;20.50;91.40;;;;;;4986090;28;20481;-70
2023/09/04 07:25:59;;;;;;;3.73;3.43;;;20.50;91.50;;;;;;5016853;28;20195;-70
2023/09/04 07:28:29;;;;;;;4.17;3.77;;;20.50;91.50;;;;;;5023120;28;20859;-68
2023/09/04 07:31:18;;;;;;;4.17;3.87;;;20.50;91.60;;;;;;5024869;28;20441;-67
2023/09/04 07:33:49;;;;;;;4.53;4.13;;;20.50;91.60;;;;;;5024950;28;20549;-67
2023/09/04 07:36:20;;;;;;;4.27;3.90;;;20.50;91.70;;;;;;5025476;28;20408;-67
2023/09/04 07:38:50;;;;;;;3.80;3.57;;;20.50;91.70;;;;;;5024636;28;21208;-68
2023/09/04 07:41:22;;;;;;;3.90;3.60;;;20.50;91.70;;;;;;4992511;28;20861;-71
2023/09/04 07:43:51;;;;;;;3.70;3.37;;;20.50;91.70;;;;;;4987448;28;20456;-72
2023/09/04 07:46:17;;;;;;;4.20;3.90;;;20.50;91.80;;;;;;4980250;28;20533;-71
2023/09/04 07:48:43;;;;;;;4.50;4.20;;;20.50;91.80;;;;;;5006728;28;20493;-72
2023/09/04 07:51:13;;;;;;;3.97;3.67;;;20.50;91.80;;;;;;5005937;28;20225;-72
2023/09/04 07:53:39;;;;;;;4.77;4.37;;;20.50;92.20;;;;;;5006123;28;20458;-72
2023/09/04 07:56:05;;;;;;;5.40;4.20;;;20.50;91.90;;;;;;5006026;28;20458;-72
2023/09/04 07:58:34;;;;;;;4.17;3.87;;;20.50;91.90;;;;;;4989208;28;20310;-72
2023/09/04 08:01:03;;;;;;;4.17;3.87;;;20.60;91.90;;;;;;5005238;28;20449;-71
2023/09/04 08:03:29;;;;;;;5.30;3.70;;;20.50;91.90;;;;;;5005828;28;20706;-72
2023/09/04 08:05:55;;;;;;;4.33;3.93;;;20.60;91.90;;;;;;5006003;28;20434;-72
2023/09/04 08:08:23;;;;;;;3.67;3.37;;;20.60;91.90;;;;;;5005657;28;20449;-72
2023/09/04 08:10:53;;;;;;;4.93;4.23;;;20.60;91.90;;;;;;5023497;28;20499;-72
2023/09/04 08:13:24;;;;;;;3.80;3.50;;;20.60;91.90;;;;;;5023417;28;20449;-72
2023/09/04 08:15:50;;;;;;;4.20;3.83;;;20.60;92.00;;;;;;5022041;28;20423;-72
2023/09/04 08:18:16;;;;;;;3.97;3.60;;;20.60;91.90;;;;;;5022379;28;20463;-73
2023/09/04 08:20:42;;;;;;;4.23;3.93;;;20.60;91.90;;;;;;5021776;28;20930;-73
2023/09/04 08:23:13;;;;;;;4.20;3.80;;;20.60;91.90;;;;;;5023040;28;20450;-73
2023/09/04 08:25:39;;;;;;;4.43;3.80;;;20.60;91.90;;;;;;5005041;28;20930;-73
2023/09/04 08:28:05;;;;;;;3.80;3.50;;;20.60;91.90;;;;;;5005012;28;20454;-72
2023/09/04 08:30:32;;;;;;;4.67;3.90;;;20.60;91.90;;;;;;5022263;28;20487;-73
2023/09/04 08:32:58;;;;;;;4.20;3.60;;;20.60;92.00;;;;;;5005687;28;20427;-72
2023/09/04 08:35:29;;;;;;;3.90;3.60;;;20.60;92.00;;;;;;5022834;28;20490;-73
2023/09/04 08:37:56;;;;;;;4.50;3.80;;;20.70;92.10;;;;;;5004929;28;20467;-73
2023/09/04 08:40:25;;;;;;;3.97;3.77;;;20.70;92.10;;;;;;5023120;28;20442;-73
2023/09/04 08:42:54;;;;;;;5.40;3.60;;;20.70;92.20;;;;;;4972411;28;20518;-72
2023/09/04 08:45:25;;;;;;;4.00;3.70;;;20.70;92.30;;;;;;5021314;28;20938;-73
2023/09/04 08:47:55;;;;;;;3.30;3.10;;;20.70;92.20;;;;;;5004872;28;20478;-73
2023/09/04 08:50:24;;;;;;;3.97;3.70;;;20.70;92.20;;;;;;5004696;28;20443;-73
2023/09/04 08:52:52;;;;;;;4.50;4.10;;;20.80;92.30;;;;;;5022699;28;20422;-73
2023/09/04 08:55:22;;;;;;;4.60;4.20;;;20.80;92.20;;;;;;5021280;28;21082;-72
2023/09/04 08:57:54;;;;;;;4.27;3.90;;;20.80;92.20;;;;;;5020995;28;20485;-72
2023/09/04 09:00:23;;;;;;;4.70;4.20;;;20.80;92.20;;;;;;5021443;28;20480;-72
2023/09/04 09:03:14;;;;;;;5.77;4.30;;;20.80;92.20;;;;;;5022731;28;20431;-73
2023/09/04 09:05:43;;;;;;;3.53;3.33;;;20.90;92.20;;;;;;5022405;28;20495;-72
2023/09/04 09:08:34;;;;;;;4.23;3.93;;;20.90;92.30;;;;;;5020515;28;20819;-72
2023/09/04 09:11:01;;;;;;;3.87;3.57;;;20.90;92.30;;;;;;5022115;28;20430;-73
2023/09/04 09:13:27;;;;;;;4.10;3.80;;;20.90;92.30;;;;;;5021791;28;20453;-73
2023/09/04 09:15:54;;;;;;;4.20;3.90;;;20.90;92.20;;;;;;4987581;28;20426;-73
2023/09/04 09:18:37;;;;;;;4.37;4.07;;;20.90;92.30;;;;;;5003921;28;20890;-73
2023/09/04 09:21:24;;;;;;;3.93;3.67;;;21.00;92.30;;;;;;5004684;28;20430;-73
2023/09/04 09:24:25;;;;;;;4.00;3.67;;;21.00;92.20;;;;;;4988173;28;20441;-72
2023/09/04 09:26:53;;;;;;;4.00;3.70;;;21.00;92.20;;;;;;4990255;28;20532;-73
2023/09/04 09:29:25;;;;;;;4.47;4.07;;;21.10;92.30;;;;;;5026416;28;20572;-73
2023/09/04 09:31:56;;;;;;;5.63;3.83;;;21.10;92.30;;;;;;5022195;28;20191;-72
2023/09/04 09:34:22;;;;;;;3.63;3.40;;;21.10;92.30;;;;;;4996348;28;20863;-73
2023/09/04 09:36:50;;;;;;;4.40;3.97;;;21.10;92.30;;;;;;5019370;28;20537;-72
2023/09/04 09:39:23;;;;;;;4.90;4.50;;;21.10;92.20;;;;;;5018384;28;20432;-72
2023/09/04 09:41:54;;;;;;;3.77;3.47;;;21.20;92.30;;;;;;5025435;28;20451;-72
2023/09/04 09:44:30;;;;;;;4.30;4.00;;;21.20;92.30;;;;;;5025349;28;20422;-72
2023/09/04 09:47:00;;;;;;;4.90;4.50;;;21.20;92.30;;;;;;5008069;28;20461;-72
2023/09/04 09:49:29;;;;;;;4.50;4.10;;;21.30;92.30;;;;;;5025853;28;20537;-72
2023/09/04 09:51:57;;;;;;;4.30;4.00;;;21.30;92.30;;;;;;4975700;28;21009;-72
2023/09/04 09:54:40;;;;;;;4.10;3.80;;;21.30;92.30;;;;;;5007868;28;20819;-72
2023/09/04 09:57:09;;;;;;;4.03;3.83;;;21.40;92.40;;;;;;5025218;28;20521;-73
2023/09/04 09:59:42;;;;;;;4.07;3.70;;;21.40;92.30;;;;;;5007980;28;20863;-72
2023/09/04 10:02:15;;;;;;;7.50;4.20;;;21.40;92.60;;;;;;5025176;28;20849;-72
2023/09/04 10:04:44;;;;;;;4.17;3.77;;;21.50;92.30;;;;;;5024718;28;20433;-72
2023/09/04 10:07:21;;;;;;;4.00;3.70;;;21.50;92.10;;;;;;5025015;28;21026;-71
2023/09/04 10:10:03;;;;;;;3.90;3.60;;;21.50;92.10;;;;;;4989842;28;20454;-72
2023/09/04 10:12:48;;;;;;;4.30;4.00;;;21.60;92.20;;;;;;5024778;28;20533;-72
2023/09/04 10:15:20;;;;;;;4.10;3.80;;;21.60;92.10;;;;;;4987880;28;20443;-72
2023/09/04 10:18:03;;;;;;;4.27;3.97;;;21.70;92.20;;;;;;5003284;28;20489;-72
2023/09/04 10:20:33;;;;;;;4.37;4.07;;;21.70;92.20;;;;;;5002927;28;20423;-72
2023/09/04 10:23:14;;;;;;;4.27;3.97;;;21.70;92.10;;;;;;5006280;28;20438;-72
2023/09/04 10:25:58;;;;;;;4.40;3.93;;;21.80;92.10;;;;;;5007075;28;21063;-72
2023/09/04 10:28:31;;;;;;;4.37;4.07;;;21.80;92.10;;;;;;5024365;28;21089;-72
2023/09/04 10:31:03;;;;;;;4.07;3.77;;;21.80;92.10;;;;;;4990751;28;20811;-72
2023/09/04 10:33:32;;;;;;;4.17;3.87;;;21.80;92.10;;;;;;5017283;28;20436;-72
2023/09/04 10:36:00;;;;;;;4.90;4.50;;;21.90;92.10;;;;;;5026823;28;20417;-72
2023/09/04 10:38:30;;;;;;;4.20;3.97;;;21.90;92.00;;;;;;5026862;28;20489;-71
2023/09/04 10:40:57;;;;;;;4.87;4.37;;;21.90;92.00;;;;;;5045126;28;21066;-71
2023/09/04 10:43:43;;;;;;;3.97;3.70;;;22.00;92.10;;;;;;5011553;28;20459;-72
2023/09/04 10:46:13;;;;;;;4.20;3.90;;;22.00;92.40;;;;;;5001383;28;20449;-72
2023/09/04 10:48:44;;;;;;;4.50;4.10;;;22.00;92.00;;;;;;5019069;28;21232;-71
2023/09/04 10:51:30;;;;;;;4.30;3.97;;;22.10;92.00;;;;;;5006327;28;20462;-74
2023/09/04 10:53:57;;;;;;;4.17;3.87;;;22.10;92.00;;;;;;4991276;28;20427;-73
2023/09/04 10:56:26;;;;;;;4.53;4.13;;;22.10;92.00;;;;;;5006614;28;20451;-71
2023/09/04 10:59:04;;;;;;;4.23;3.93;;;22.20;92.00;;;;;;5007708;28;20492;-74
2023/09/04 11:01:32;;;;;;;4.60;4.30;;;22.20;91.90;;;;;;5009620;28;20457;-71
2023/09/04 11:04:01;;;;;;;5.30;4.80;;;22.20;91.90;;;;;;4992772;28;20495;-72
2023/09/04 11:06:40;;;;;;;6.83;4.90;;;22.30;91.90;;;;;;5000006;28;20443;-73
2023/09/04 11:09:11;;;;;;;4.33;4.03;;;22.30;91.80;;;;;;5005820;28;20436;-73
2023/09/04 11:11:42;;;;;;;4.30;4.00;;;22.30;91.80;;;;;;4973810;28;20950;-73
2023/09/04 11:14:09;;;;;;;4.13;3.73;;;22.40;91.20;;;;;;5015639;28;20459;-73
2023/09/04 11:16:48;;;;;;;3.93;3.63;;;22.50;90.80;;;;;;5001438;28;20459;-73
2023/09/04 11:19:16;;;;;;;4.20;3.80;;;22.60;90.50;;;;;;5023281;28;20501;-73
2023/09/04 11:21:44;;;;;;;4.00;3.70;;;22.70;90.50;;;;;;5005985;28;20426;-73
2023/09/04 11:24:13;;;;;;;3.80;3.50;;;22.70;90.40;;;;;;4972991;28;20529;-71
2023/09/04 11:26:41;;;;;;;4.20;3.90;;;22.80;90.40;;;;;;5005258;28;20461;-72
2023/09/04 11:29:10;;;;;;;4.77;4.37;;;22.80;90.30;;;;;;5019567;28;20458;-72
2023/09/04 11:31:37;;;;;;;5.07;4.60;;;22.90;90.40;;;;;;5005331;28;20450;-69
2023/09/04 11:34:08;;;;;;;4.53;4.13;;;22.90;90.30;;;;;;4990050;28;20957;-68
2023/09/04 11:36:37;;;;;;;6.00;3.97;;;22.90;90.40;;;;;;5005966;28;21065;-68
2023/09/04 11:39:09;;;;;;;3.87;3.60;;;22.90;90.40;;;;;;4989554;28;21008;-68
2023/09/04 11:41:35;;;;;;;3.90;3.60;;;23.00;90.50;;;;;;5024078;28;20927;-67
2023/09/04 11:44:05;;;;;;;4.50;4.20;;;23.00;90.40;;;;;;4990141;28;21032;-68
2023/09/04 11:46:33;;;;;;;4.03;3.73;;;23.00;90.40;;;;;;5005848;28;20416;-65
2023/09/04 11:48:59;;;;;;;4.60;4.20;;;23.00;90.30;;;;;;4989206;28;21247;-65
2023/09/04 11:51:26;;;;;;;4.20;3.90;;;23.10;90.40;;;;;;5005529;28;21002;-65
2023/09/04 11:53:53;;;;;;;4.57;4.27;;;23.10;90.40;;;;;;4972865;28;20982;-66
2023/09/04 11:56:20;;;;;;;3.97;3.67;;;23.10;90.30;;;;;;5004645;28;20566;-65
2023/09/04 11:58:50;;;;;;;4.77;4.37;;;23.10;90.40;;;;;;5005135;28;20507;-65
2023/09/04 12:01:21;;;;;;;4.37;4.00;;;23.20;90.40;;;;;;5022370;28;20416;-65
2023/09/04 12:03:52;;;;;;;5.20;3.53;;;23.20;90.30;;;;;;5004975;28;20530;-65
2023/09/04 12:06:24;;;;;;;4.17;3.87;;;23.20;90.40;;;;;;5022668;28;20422;-65
2023/09/04 12:08:50;;;;;;;3.73;3.43;;;23.20;90.40;;;;;;4988298;28;20480;-65
2023/09/04 12:11:16;;;;;;;4.80;4.00;;;23.20;90.40;;;;;;5004532;28;20416;-64
2023/09/04 12:13:43;;;;;;;3.90;3.63;;;23.30;90.50;;;;;;5003455;28;20775;-68
2023/09/04 12:16:10;;;;;;;4.27;3.97;;;23.30;90.50;;;;;;5021394;28;20457;-68
2023/09/04 12:18:39;;;;;;;6.23;4.50;;;23.30;90.50;;;;;;5022242;28;20470;-69
2023/09/04 12:21:09;;;;;;;3.60;3.30;;;23.30;90.40;;;;;;5022431;28;20501;-69
2023/09/04 12:23:45;;;;;;;4.07;3.77;;;23.40;90.30;;;;;;5002892;28;20788;-68
2023/09/04 12:26:18;;;;;;;4.20;3.80;;;23.40;90.40;;;;;;5038987;28;20784;-68
2023/09/04 12:28:47;;;;;;;3.70;3.40;;;23.40;90.30;;;;;;4987259;28;20538;-69
2023/09/04 12:31:20;;;;;;;4.30;4.00;;;23.40;90.30;;;;;;5019460;28;20538;-69
2023/09/04 12:33:47;;;;;;;6.73;3.90;;;23.50;90.40;;;;;;5003414;28;20493;-70
2023/09/04 12:36:20;;;;;;;3.93;3.63;;;23.50;90.40;;;;;;4987716;28;20430;-69
2023/09/04 12:38:46;;;;;;;4.10;3.80;;;23.50;90.40;;;;;;5003269;28;20479;-69
2023/09/04 12:41:13;;;;;;;3.77;3.47;;;23.50;90.40;;;;;;5003317;28;21287;-69
2023/09/04 12:43:41;;;;;;;4.50;4.10;;;23.60;90.40;;;;;;5002657;28;20932;-69
2023/09/04 12:46:11;;;;;;;4.00;3.70;;;23.60;90.30;;;;;;5019556;28;20537;-68
2023/09/04 12:48:41;;;;;;;3.60;3.30;;;23.60;90.40;;;;;;5019354;28;20430;-69
2023/09/04 12:51:08;;;;;;;3.70;3.50;;;23.70;90.20;;;;;;5019960;28;20454;-69
2023/09/04 12:53:45;;;;;;;4.27;3.87;;;23.70;90.20;;;;;;5020902;28;20439;-68
2023/09/04 12:56:16;;;;;;;4.00;3.80;;;23.70;90.20;;;;;;5020444;28;20869;-69
2023/09/04 12:58:42;;;;;;;4.13;3.83;;;23.70;90.10;;;;;;5003417;28;20459;-69
2023/09/04 13:01:11;;;;;;;3.90;3.70;;;23.70;90.10;;;;;;5020146;28;20434;-69